フランクフルト の空港の天気 - METARとTAF

フランクフルト国際空港 ( EDDF / FRA ) - ドイツ フランクフルト・アム・マイン
飛行場実況気象(Metar)
観測時間07/02 13:50 CEST (07/02 11:50 UTC)
風向・風速西南西 7m/s
視程10km以上
天気現象
なし
気温26℃
湿度37%
気圧1011hPa
METAREDDF 021150Z 24013KT 200V280 CAVOK 26/10 Q1011 BECMG 25015G30KT
過去の天気等 Google飛行場航空写真 Wunderground天気予報

過去48時間のMETAR

飛行場予報(TAF)
発表時間: 7/02 13:00 CEST (7/02 11:00 UTC)
予報対象時間: 2日14時 CEST ~ 3日20時 CEST
風向・風速西 7m/s
視程10km以上
全天の4割程度の雲 雲底高度 1220m
2日14時 CEST ~ 2日20時 CEST に 確率 30% で一時的に
風向・風速西 8m/s 瞬間風速 13m/s
天気現象しゅう雨
全天の8割程度の積乱雲 雲底高度 1220m
2日20時 CEST ~ 2日23時 CEST に徐々に
風向・風速西南西 3m/s
3日10時 CEST ~ 3日12時 CEST に徐々に
風向・風速西南西 6m/s
3日13時 CEST ~ 3日18時 CEST に 確率 30% で一時的に
風向・風速西 8m/s 瞬間風速 13m/s
TAF EDDF 021100Z 0212/0318 27013KT 9999 SCT040
PROB30 TEMPO 0212/0218 27015G25KT SHRA BKN040CB
BECMG 0218/0221 24006KT
BECMG 0308/0310 25011KT
PROB30 TEMPO 0311/0316 27015G25KT